Weather at Sentell Ranch Airport [CLOSED]

Public forecast

Using degrees Fahrenheit for public forecast. Weather courtesy of forecast.io.

Closest aviation weather report (METAR) to Sentell Ranch Airport

Report is more than 6 hours old.

Closest report is Sonora Municipal Airport, 20.0 nm (37.1 km) WNW. Retrieved 2022/09/17 18:55 UTC (20 days ago):

KSOA 171855Z AUTO 18014G19KT 10SM FEW040 FEW055 SCT075 30/18 A3007 RMK AO2

Closest aviation forecast (TAF) to Sentell Ranch Airport

Forecast is more than 12 hours old.

Closest forecast is Sonora Municipal Airport, 20.0 nm (37.1 km) WNW. Retrieved 2022/09/17 18:24 UTC (20 days ago):

TAF KSOA 171723Z 1718/1818 18011G17KT P6SM SCT040 FM180100 15005KT P6SM SKC FM181200 16006KT P6SM SCT020 FM181600 17010KT P6SM SCT250